Time;durP1;ratioP1;P1;durP2;ratioP2;P2;SDS_P1;SDS_P2;PMS_P1;PMS_P2;Temp;Humidity;BMP_temperature;BMP_pressure;BME280_temperature;BME280_humidity;BME280_pressure;Samples;Min_cycle;Max_cycle;Signal;HPM_P1;HPM_P2
2024/04/08 00:01:01;;;;;;;18.13;5.07;;;;;;;;;;10096594;28;20050;-67
2024/04/08 00:05:53;;;;;;;7.53;3.30;;;;;;;;;;10096198;28;20037;-66
2024/04/08 00:10:46;;;;;;;5.78;3.33;;;;;;;;;;10080317;28;20042;-66
2024/04/08 00:15:38;;;;;;;7.07;3.33;;;;;;;;;;10099206;28;20520;-67
2024/04/08 00:20:30;;;;;;;5.18;3.70;;;;;;;;;;10086923;28;20119;-67
2024/04/08 00:25:22;;;;;;;6.18;3.53;;;;;;;;;;10088170;28;20052;-67
2024/04/08 00:30:15;;;;;;;4.22;3.33;;;;;;;;;;10090589;28;20073;-67
2024/04/08 00:35:08;;;;;;;5.07;2.92;;;;;;;;;;10094892;28;20045;-67
2024/04/08 00:40:00;;;;;;;4.85;3.17;;;;;;;;;;10084045;28;20057;-65
2024/04/08 00:44:53;;;;;;;4.68;2.72;;;;;;;;;;10090550;28;20128;-67
2024/04/08 00:49:46;;;;;;;4.25;3.03;;;;;;;;;;10090027;28;20117;-66
2024/04/08 00:54:41;;;;;;;5.57;3.08;;;;;;;;;;10105228;28;20048;-67
2024/04/08 00:59:33;;;;;;;4.55;3.53;;;;;;;;;;10118335;28;20068;-66
2024/04/08 01:04:26;;;;;;;5.07;2.78;;;;;;;;;;10115691;28;20408;-67
2024/04/08 01:09:19;;;;;;;4.63;3.03;;;;;;;;;;10115020;28;20525;-66
2024/04/08 01:14:12;;;;;;;4.88;3.08;;;;;;;;;;10098489;28;20048;-66
2024/04/08 01:19:04;;;;;;;8.07;2.90;;;;;;;;;;10095759;28;20451;-66
2024/04/08 01:23:57;;;;;;;3.92;2.83;;;;;;;;;;10082575;28;20056;-66
2024/04/08 01:28:50;;;;;;;4.50;2.70;;;;;;;;;;10110149;28;20068;-66
2024/04/08 01:33:42;;;;;;;6.15;3.00;;;;;;;;;;10102788;28;20053;-66
2024/04/08 01:38:39;;;;;;;4.60;2.75;;;;;;;;;;10103064;28;20071;-66
2024/04/08 01:43:31;;;;;;;5.60;3.97;;;;;;;;;;10099891;28;20052;-66
2024/04/08 01:48:22;;;;;;;10.88;4.38;;;;;;;;;;10108755;28;20058;-66
2024/04/08 01:53:15;;;;;;;4.00;2.85;;;;;;;;;;10108642;28;20384;-66
2024/04/08 01:58:10;;;;;;;6.90;2.97;;;;;;;;;;10107913;28;20497;-66
2024/04/08 02:03:02;;;;;;;3.58;2.47;;;;;;;;;;10108471;28;20072;-66
2024/04/08 02:07:55;;;;;;;6.50;2.60;;;;;;;;;;10109755;28;20049;-66
2024/04/08 02:12:49;;;;;;;6.43;3.00;;;;;;;;;;10113683;28;20436;-66
2024/04/08 02:17:42;;;;;;;6.03;2.60;;;;;;;;;;10108885;28;20044;-66
2024/04/08 02:22:36;;;;;;;7.75;3.00;;;;;;;;;;10120877;28;20083;-66
2024/04/08 02:27:28;;;;;;;5.18;2.83;;;;;;;;;;10117999;28;20048;-66
2024/04/08 02:32:21;;;;;;;6.35;2.80;;;;;;;;;;10117105;28;20500;-66
2024/04/08 02:37:13;;;;;;;4.88;2.45;;;;;;;;;;10109850;28;20583;-66
2024/04/08 02:42:06;;;;;;;7.78;2.50;;;;;;;;;;10117894;28;20045;-67
2024/04/08 02:46:59;;;;;;;3.30;2.70;;;;;;;;;;10120107;28;20040;-66
2024/04/08 02:51:52;;;;;;;5.03;2.80;;;;;;;;;;10116499;28;20048;-66
2024/04/08 02:56:46;;;;;;;7.55;3.25;;;;;;;;;;10128204;28;20067;-66
2024/04/08 03:01:39;;;;;;;5.43;3.20;;;;;;;;;;10126877;28;20131;-69
2024/04/08 03:06:32;;;;;;;6.68;2.88;;;;;;;;;;10126013;28;20044;-67
2024/04/08 03:11:24;;;;;;;5.22;2.60;;;;;;;;;;10131613;28;20140;-66
2024/04/08 03:16:16;;;;;;;3.85;2.65;;;;;;;;;;10127955;28;20041;-65
2024/04/08 03:21:09;;;;;;;5.50;2.88;;;;;;;;;;10130890;28;20048;-66
2024/04/08 03:26:03;;;;;;;7.53;2.45;;;;;;;;;;10130938;28;20049;-67
2024/04/08 03:30:56;;;;;;;5.95;3.28;;;;;;;;;;10130914;28;20048;-66
2024/04/08 03:35:48;;;;;;;5.22;2.85;;;;;;;;;;10131066;28;20495;-66
2024/04/08 03:40:44;;;;;;;4.53;2.70;;;;;;;;;;10130879;28;20603;-65
2024/04/08 03:45:38;;;;;;;6.63;2.88;;;;;;;;;;10127750;28;20123;-65
2024/04/08 03:50:34;;;;;;;6.10;3.28;;;;;;;;;;10122689;28;20044;-65
2024/04/08 03:55:30;;;;;;;4.22;2.85;;;;;;;;;;10103714;28;20049;-65
2024/04/08 04:00:22;;;;;;;5.32;3.00;;;;;;;;;;10114079;28;20448;-65
2024/04/08 04:05:15;;;;;;;3.88;2.67;;;;;;;;;;10114922;28;20135;-65
2024/04/08 04:10:08;;;;;;;7.95;3.30;;;;;;;;;;10112594;28;20136;-68
2024/04/08 04:15:01;;;;;;;3.95;2.53;;;;;;;;;;10102062;28;20057;-68
2024/04/08 04:19:53;;;;;;;4.93;3.08;;;;;;;;;;10117208;28;20044;-66
2024/04/08 04:24:46;;;;;;;9.55;2.55;;;;;;;;;;10107773;28;20049;-66
2024/04/08 04:29:38;;;;;;;6.57;3.10;;;;;;;;;;10109604;28;20123;-65
2024/04/08 04:34:31;;;;;;;7.75;3.40;;;;;;;;;;10114797;28;20083;-66
2024/04/08 04:39:23;;;;;;;4.80;3.03;;;;;;;;;;10102496;28;20049;-66
2024/04/08 04:44:17;;;;;;;6.72;2.70;;;;;;;;;;10104043;28;20497;-65
2024/04/08 04:49:09;;;;;;;3.58;2.50;;;;;;;;;;10115079;28;20131;-65
2024/04/08 04:54:01;;;;;;;5.75;3.13;;;;;;;;;;10095928;28;20049;-65
2024/04/08 04:58:54;;;;;;;6.13;3.88;;;;;;;;;;10114745;28;20048;-66
2024/04/08 05:03:47;;;;;;;6.60;2.85;;;;;;;;;;10109608;28;20037;-66
2024/04/08 05:08:40;;;;;;;2.78;2.55;;;;;;;;;;10111574;28;20101;-65
2024/04/08 05:13:33;;;;;;;4.50;2.90;;;;;;;;;;10115104;28;20052;-66
2024/04/08 05:18:25;;;;;;;7.22;2.67;;;;;;;;;;10114675;28;20194;-66
2024/04/08 05:23:20;;;;;;;6.93;3.10;;;;;;;;;;10108166;28;20118;-65
2024/04/08 05:28:13;;;;;;;7.07;2.60;;;;;;;;;;10121248;28;20044;-65
2024/04/08 05:33:05;;;;;;;4.30;2.90;;;;;;;;;;10117317;28;20048;-66
2024/04/08 05:37:58;;;;;;;4.50;2.95;;;;;;;;;;10126889;28;20052;-69
2024/04/08 05:42:51;;;;;;;4.40;2.40;;;;;;;;;;10126949;28;20512;-70
2024/04/08 05:47:43;;;;;;;5.60;3.13;;;;;;;;;;10126210;28;20044;-69
2024/04/08 05:52:36;;;;;;;7.05;2.80;;;;;;;;;;10115844;28;20078;-70
2024/04/08 05:57:29;;;;;;;7.75;3.33;;;;;;;;;;10124185;28;20044;-69
2024/04/08 06:02:21;;;;;;;4.97;3.00;;;;;;;;;;10121550;28;20605;-70
2024/04/08 06:07:14;;;;;;;12.55;3.97;;;;;;;;;;10125506;28;20415;-71
2024/04/08 06:12:07;;;;;;;7.20;3.10;;;;;;;;;;10125652;28;20496;-71
2024/04/08 06:16:59;;;;;;;9.00;3.83;;;;;;;;;;10124372;28;20036;-70
2024/04/08 06:21:52;;;;;;;8.82;4.00;;;;;;;;;;10108047;28;20504;-65
2024/04/08 06:26:44;;;;;;;7.25;4.43;;;;;;;;;;10117890;28;20049;-65
2024/04/08 06:31:37;;;;;;;7.90;4.35;;;;;;;;;;10116507;28;20055;-66
2024/04/08 06:36:33;;;;;;;6.82;4.60;;;;;;;;;;10121201;28;20508;-65
2024/04/08 06:41:25;;;;;;;8.48;4.80;;;;;;;;;;10116718;28;20661;-66
2024/04/08 06:46:19;;;;;;;5.90;3.60;;;;;;;;;;10117705;28;20131;-66
2024/04/08 06:51:12;;;;;;;7.57;3.53;;;;;;;;;;10118625;28;20070;-66
2024/04/08 06:56:06;;;;;;;7.22;2.65;;;;;;;;;;10103604;28;20041;-66
2024/04/08 07:00:58;;;;;;;7.82;3.67;;;;;;;;;;10107567;28;20144;-66
2024/04/08 07:05:50;;;;;;;7.47;3.00;;;;;;;;;;10109040;28;20103;-66
2024/04/08 07:10:46;;;;;;;9.68;4.43;;;;;;;;;;10119018;28;20409;-66
2024/04/08 07:15:38;;;;;;;11.63;4.68;;;;;;;;;;10119092;28;20052;-66
2024/04/08 07:20:32;;;;;;;11.80;4.78;;;;;;;;;;10110250;28;20052;-66
2024/04/08 07:25:24;;;;;;;7.63;3.90;;;;;;;;;;10110372;28;20057;-66
2024/04/08 07:30:17;;;;;;;5.38;3.92;;;;;;;;;;10119361;28;20555;-65
2024/04/08 07:35:12;;;;;;;8.45;4.47;;;;;;;;;;10121011;28;20049;-66
2024/04/08 07:40:08;;;;;;;4.03;3.53;;;;;;;;;;10121865;28;20091;-66
2024/04/08 07:45:01;;;;;;;6.68;4.93;;;;;;;;;;10108122;28;20056;-66
2024/04/08 07:49:56;;;;;;;8.05;4.70;;;;;;;;;;10099644;28;20668;-65
2024/04/08 07:56:22;;;;;;;7.03;4.97;;;;;;;;;;10808436;26;20366;-67
2024/04/08 08:01:15;;;;;;;12.88;6.40;;;;;;;;;;10820996;26;20069;-66
2024/04/08 08:06:09;;;;;;;9.00;5.68;;;;;;;;;;10793235;26;20009;-67
2024/04/08 08:11:05;;;;;;;10.80;5.60;;;;;;;;;;10795069;26;20370;-67
2024/04/08 08:15:59;;;;;;;10.05;6.10;;;;;;;;;;10792517;26;20000;-67
2024/04/08 08:20:53;;;;;;;8.25;4.50;;;;;;;;;;10789345;26;20480;-66
2024/04/08 08:25:48;;;;;;;10.43;5.75;;;;;;;;;;10789610;26;20015;-67
2024/04/08 08:30:42;;;;;;;6.60;6.00;;;;;;;;;;10794074;26;20003;-67
2024/04/08 08:35:36;;;;;;;8.68;4.68;;;;;;;;;;10791477;26;20008;-67
2024/04/08 08:40:29;;;;;;;11.77;4.68;;;;;;;;;;10791412;26;20004;-66
2024/04/08 08:45:24;;;;;;;5.55;4.28;;;;;;;;;;10784886;26;20088;-67
2024/04/08 08:50:18;;;;;;;9.05;3.50;;;;;;;;;;10780656;26;20016;-67
2024/04/08 08:55:13;;;;;;;10.07;5.43;;;;;;;;;;10787202;26;20416;-66
2024/04/08 09:00:08;;;;;;;8.20;4.32;;;;;;;;;;10791286;26;20027;-67
2024/04/08 09:05:02;;;;;;;8.45;4.78;;;;;;;;;;10774646;26;20000;-67
2024/04/08 09:09:58;;;;;;;7.25;4.65;;;;;;;;;;10744081;26;20363;-67
2024/04/08 09:14:57;;;;;;;12.02;4.55;;;;;;;;;;10745128;26;20016;-67
2024/04/08 09:19:51;;;;;;;6.40;3.75;;;;;;;;;;10754516;26;20011;-67
2024/04/08 09:24:45;;;;;;;6.90;3.80;;;;;;;;;;10759911;26;20442;-67
2024/04/08 09:29:39;;;;;;;6.53;3.70;;;;;;;;;;10758490;26;20001;-67
2024/04/08 09:34:33;;;;;;;8.13;4.10;;;;;;;;;;10755355;26;20468;-68
2024/04/08 09:39:28;;;;;;;7.80;4.57;;;;;;;;;;10752956;26;20460;-67
2024/04/08 09:44:22;;;;;;;12.30;4.35;;;;;;;;;;10758824;26;20012;-67
2024/04/08 09:49:18;;;;;;;13.93;4.65;;;;;;;;;;10756019;26;20442;-67
2024/04/08 09:54:20;;;;;;;6.50;3.75;;;;;;;;;;10752670;26;20489;-67
2024/04/08 09:59:22;;;;;;;10.38;4.00;;;;;;;;;;10745183;26;20010;-67
2024/04/08 10:04:20;;;;;;;14.60;4.72;;;;;;;;;;10750607;26;20430;-67
2024/04/08 10:09:15;;;;;;;10.77;3.83;;;;;;;;;;10740297;26;20018;-67
2024/04/08 10:14:20;;;;;;;9.02;4.15;;;;;;;;;;10753752;26;20004;-68
2024/04/08 10:19:14;;;;;;;12.45;4.20;;;;;;;;;;10747754;26;19996;-67
2024/04/08 10:24:31;;;;;;;11.75;4.40;;;;;;;;;;10757493;26;20004;-67
2024/04/08 10:29:36;;;;;;;13.57;3.92;;;;;;;;;;10755096;26;20395;-67
2024/04/08 10:34:30;;;;;;;9.80;4.60;;;;;;;;;;10758421;26;20004;-67
2024/04/08 10:39:27;;;;;;;5.15;3.50;;;;;;;;;;10756149;26;20004;-68
2024/04/08 10:44:23;;;;;;;8.73;4.68;;;;;;;;;;10733883;26;20089;-68
2024/04/08 10:49:16;;;;;;;7.63;3.85;;;;;;;;;;10756716;26;20019;-68
2024/04/08 10:54:11;;;;;;;7.07;3.35;;;;;;;;;;10756403;26;20023;-67
2024/04/08 10:59:07;;;;;;;9.70;4.35;;;;;;;;;;10757094;26;20012;-67
2024/04/08 11:04:03;;;;;;;13.47;5.30;;;;;;;;;;10748444;26;20014;-68
2024/04/08 11:08:56;;;;;;;17.50;5.80;;;;;;;;;;10754742;26;20363;-67
2024/04/08 11:13:50;;;;;;;8.27;3.85;;;;;;;;;;10751355;26;20434;-67
2024/04/08 11:18:47;;;;;;;7.57;3.78;;;;;;;;;;10755306;26;20101;-66
2024/04/08 11:23:43;;;;;;;8.07;4.13;;;;;;;;;;10750699;26;20081;-67
2024/04/08 11:28:37;;;;;;;8.20;3.65;;;;;;;;;;10756022;26;20000;-67
2024/04/08 11:33:31;;;;;;;6.57;3.65;;;;;;;;;;10756166;26;20040;-66
2024/04/08 11:38:25;;;;;;;7.43;3.38;;;;;;;;;;10755652;26;20036;-67
2024/04/08 11:43:28;;;;;;;8.70;3.78;;;;;;;;;;10758104;26;20028;-67
2024/04/08 11:48:24;;;;;;;5.22;4.03;;;;;;;;;;10756160;26;20948;-67
2024/04/08 11:53:18;;;;;;;14.30;6.28;;;;;;;;;;10755449;26;20139;-67
2024/04/08 11:58:13;;;;;;;8.88;5.10;;;;;;;;;;10755507;26;20070;-67
2024/04/08 12:03:07;;;;;;;9.20;5.53;;;;;;;;;;10748441;26;20432;-67
2024/04/08 12:08:04;;;;;;;11.77;6.13;;;;;;;;;;10757538;26;20351;-66
2024/04/08 12:13:34;;;;;;;6.38;5.72;;;;;;;;;;10767999;26;20008;-66
2024/04/08 12:18:28;;;;;;;7.28;5.35;;;;;;;;;;10757505;26;20012;-66
2024/04/08 12:23:23;;;;;;;7.18;5.75;;;;;;;;;;10754162;26;21133;-67
2024/04/08 12:28:17;;;;;;;9.93;5.80;;;;;;;;;;10757045;26;20321;-68
2024/04/08 12:33:11;;;;;;;9.20;5.88;;;;;;;;;;10753697;26;20004;-67
2024/04/08 12:38:09;;;;;;;8.43;6.00;;;;;;;;;;10733722;26;20005;-69
2024/04/08 12:43:02;;;;;;;15.35;5.70;;;;;;;;;;10761823;26;20041;-66
2024/04/08 12:47:56;;;;;;;9.55;5.45;;;;;;;;;;10761852;26;20069;-67
2024/04/08 12:52:50;;;;;;;17.55;6.22;;;;;;;;;;10760573;26;20301;-67
2024/04/08 12:57:45;;;;;;;9.02;4.40;;;;;;;;;;10761640;26;20015;-67
2024/04/08 13:02:40;;;;;;;10.13;4.43;;;;;;;;;;10761218;26;20073;-66
2024/04/08 13:07:35;;;;;;;11.50;4.88;;;;;;;;;;10761950;26;20004;-67
2024/04/08 13:12:29;;;;;;;10.73;4.28;;;;;;;;;;10780814;26;20420;-67
2024/04/08 13:17:22;;;;;;;9.60;3.42;;;;;;;;;;10758753;26;20085;-66
2024/04/08 13:22:16;;;;;;;8.38;2.95;;;;;;;;;;10759696;26;20024;-67
2024/04/08 13:27:10;;;;;;;10.65;3.72;;;;;;;;;;10761796;26;20450;-67
2024/04/08 13:32:05;;;;;;;9.73;4.45;;;;;;;;;;10759848;26;20000;-67
2024/04/08 13:37:00;;;;;;;5.18;3.30;;;;;;;;;;10760751;26;20004;-67
2024/04/08 13:41:55;;;;;;;6.93;3.67;;;;;;;;;;10758891;26;20032;-67
2024/04/08 13:46:48;;;;;;;16.75;4.65;;;;;;;;;;10759645;26;20082;-67
2024/04/08 13:51:43;;;;;;;6.82;4.03;;;;;;;;;;10754190;26;20456;-67
2024/04/08 13:56:37;;;;;;;5.07;2.90;;;;;;;;;;10759363;26;20000;-66
2024/04/08 14:01:31;;;;;;;8.27;3.25;;;;;;;;;;10761363;26;20339;-67
2024/04/08 14:06:25;;;;;;;7.60;3.83;;;;;;;;;;10759214;26;20000;-67
2024/04/08 14:11:19;;;;;;;8.00;3.80;;;;;;;;;;10768323;26;20008;-65
2024/04/08 14:16:12;;;;;;;4.72;3.15;;;;;;;;;;10770294;26;20016;-67
2024/04/08 14:21:06;;;;;;;9.32;4.50;;;;;;;;;;10760421;26;20004;-67
2024/04/08 14:26:00;;;;;;;8.82;4.65;;;;;;;;;;10751276;26;19996;-67
2024/04/08 14:30:54;;;;;;;6.38;3.05;;;;;;;;;;10757969;26;20004;-67
2024/04/08 14:35:49;;;;;;;9.05;3.90;;;;;;;;;;10760360;26;20008;-66
2024/04/08 14:40:45;;;;;;;;;;;;;;;;;;10758256;26;20459;-66
2024/04/08 14:45:41;;;;;;;7.80;4.00;;;;;;;;;;10760112;26;19933;-67
2024/04/08 14:50:35;;;;;;;6.28;3.70;;;;;;;;;;10757800;26;20078;-67
2024/04/08 14:55:30;;;;;;;9.07;3.13;;;;;;;;;;10753650;26;20012;-66
2024/04/08 15:00:23;;;;;;;5.38;2.70;;;;;;;;;;10757618;26;20422;-67
2024/04/08 15:05:18;;;;;;;8.20;3.28;;;;;;;;;;10758211;26;20030;-66
2024/04/08 15:10:15;;;;;;;12.75;5.15;;;;;;;;;;10756907;26;20015;-67
2024/04/08 15:15:09;;;;;;;6.05;3.35;;;;;;;;;;10775190;26;20032;-67
2024/04/08 15:20:04;;;;;;;13.93;4.43;;;;;;;;;;10752235;26;20011;-67
2024/04/08 15:24:58;;;;;;;10.98;3.47;;;;;;;;;;10746727;26;20019;-67
2024/04/08 15:29:53;;;;;;;11.55;3.15;;;;;;;;;;10756108;26;20103;-68
2024/04/08 15:34:51;;;;;;;4.80;3.38;;;;;;;;;;10736717;26;20015;-67
2024/04/08 15:39:44;;;;;;;8.48;3.25;;;;;;;;;;10756881;26;20404;-67
2024/04/08 15:44:39;;;;;;;4.90;3.35;;;;;;;;;;10752590;26;20000;-68
2024/04/08 15:49:34;;;;;;;7.60;3.25;;;;;;;;;;10755173;26;20048;-67
2024/04/08 15:54:28;;;;;;;8.10;3.42;;;;;;;;;;10753342;26;20004;-68
2024/04/08 15:59:22;;;;;;;5.68;3.95;;;;;;;;;;10747743;26;20081;-68
2024/04/08 16:04:17;;;;;;;10.48;3.50;;;;;;;;;;10749579;26;20015;-68
2024/04/08 16:09:12;;;;;;;7.90;3.10;;;;;;;;;;10747655;26;20008;-66
2024/04/08 16:14:06;;;;;;;8.00;3.63;;;;;;;;;;10757363;26;20012;-66
2024/04/08 16:19:00;;;;;;;11.82;4.03;;;;;;;;;;10752523;26;20445;-66
2024/04/08 16:23:55;;;;;;;9.35;5.07;;;;;;;;;;10760648;26;20012;-66
2024/04/08 16:28:52;;;;;;;10.02;4.18;;;;;;;;;;10760950;26;20019;-66
2024/04/08 16:33:55;;;;;;;13.63;6.80;;;;;;;;;;10747041;26;20000;-67
2024/04/08 16:38:49;;;;;;;11.65;5.25;;;;;;;;;;10763084;26;20004;-66
2024/04/08 16:43:45;;;;;;;12.32;5.05;;;;;;;;;;10762342;26;20412;-67
2024/04/08 16:48:40;;;;;;;15.38;4.80;;;;;;;;;;10762423;26;20005;-67
2024/04/08 16:53:34;;;;;;;9.40;4.78;;;;;;;;;;10729314;26;20004;-66
2024/04/08 16:58:29;;;;;;;8.05;4.78;;;;;;;;;;10762768;26;20412;-67
2024/04/08 17:03:27;;;;;;;15.40;5.07;;;;;;;;;;10760658;26;20024;-66
2024/04/08 17:08:23;;;;;;;15.23;5.53;;;;;;;;;;10762433;26;20445;-67
2024/04/08 17:13:17;;;;;;;12.90;5.05;;;;;;;;;;10764023;26;20004;-66
2024/04/08 17:18:12;;;;;;;11.63;5.70;;;;;;;;;;10755423;26;20004;-66
2024/04/08 17:23:06;;;;;;;12.13;5.50;;;;;;;;;;10732132;26;20081;-67
2024/04/08 17:28:00;;;;;;;9.65;3.88;;;;;;;;;;10760434;26;20015;-66
2024/04/08 17:32:55;;;;;;;8.52;4.88;;;;;;;;;;10752491;26;20008;-67
2024/04/08 17:37:49;;;;;;;7.80;4.53;;;;;;;;;;10754412;26;20085;-66
2024/04/08 17:42:44;;;;;;;7.80;4.40;;;;;;;;;;10757330;26;20427;-66
2024/04/08 17:47:40;;;;;;;12.10;4.43;;;;;;;;;;10743333;26;20105;-67
2024/04/08 17:52:35;;;;;;;9.80;4.75;;;;;;;;;;10758463;26;20014;-67
2024/04/08 17:57:29;;;;;;;9.20;4.18;;;;;;;;;;10729365;26;20008;-66
2024/04/08 18:02:23;;;;;;;11.55;4.88;;;;;;;;;;10732229;26;20004;-66
2024/04/08 18:07:23;;;;;;;6.40;4.05;;;;;;;;;;10742312;26;20005;-66
2024/04/08 18:12:18;;;;;;;8.85;4.28;;;;;;;;;;10759141;26;20004;-66
2024/04/08 18:17:12;;;;;;;13.95;4.57;;;;;;;;;;10754813;26;20440;-66
2024/04/08 18:22:07;;;;;;;10.63;5.63;;;;;;;;;;10754591;26;20096;-65
2024/04/08 18:27:01;;;;;;;13.88;5.40;;;;;;;;;;10754576;26;20023;-64
2024/04/08 18:31:57;;;;;;;10.52;4.72;;;;;;;;;;10751272;26;20383;-65
2024/04/08 18:36:51;;;;;;;15.52;7.10;;;;;;;;;;10757643;26;20441;-66
2024/04/08 18:41:44;;;;;;;13.43;6.05;;;;;;;;;;10757616;26;20078;-66
2024/04/08 18:46:38;;;;;;;10.20;5.30;;;;;;;;;;10757745;26;20000;-67
2024/04/08 18:51:32;;;;;;;11.32;5.60;;;;;;;;;;10750718;26;20019;-67
2024/04/08 18:56:27;;;;;;;10.82;5.25;;;;;;;;;;10752244;26;20077;-66
2024/04/08 19:01:24;;;;;;;7.75;4.00;;;;;;;;;;10736038;26;20019;-65
2024/04/08 19:06:18;;;;;;;7.50;4.35;;;;;;;;;;10758424;26;20004;-67
2024/04/08 19:11:13;;;;;;;13.50;5.15;;;;;;;;;;10764008;26;20035;-67
2024/04/08 19:16:07;;;;;;;10.27;3.85;;;;;;;;;;10772027;26;20011;-64
2024/04/08 19:21:06;;;;;;;11.77;4.82;;;;;;;;;;10750353;26;20004;-66
2024/04/08 19:26:00;;;;;;;8.68;3.70;;;;;;;;;;10743106;26;20000;-66
2024/04/08 19:30:55;;;;;;;32.22;4.65;;;;;;;;;;10743082;26;20000;-66
2024/04/08 19:35:58;;;;;;;12.38;4.43;;;;;;;;;;10737659;26;20004;-66
2024/04/08 19:41:03;;;;;;;6.45;4.15;;;;;;;;;;10742557;26;20018;-65
2024/04/08 19:45:57;;;;;;;5.32;4.13;;;;;;;;;;10750652;26;20016;-67
2024/04/08 19:51:18;;;;;;;6.13;4.40;;;;;;;;;;10736643;26;20035;-67
2024/04/08 19:56:23;;;;;;;6.78;4.05;;;;;;;;;;10756683;26;20016;-69
2024/04/08 20:01:18;;;;;;;6.85;4.22;;;;;;;;;;10754521;26;20004;-67
2024/04/08 20:06:12;;;;;;;5.90;5.30;;;;;;;;;;10755091;26;20049;-66
2024/04/08 20:11:10;;;;;;;12.82;6.03;;;;;;;;;;10759309;26;20004;-67
2024/04/08 20:16:17;;;;;;;18.40;6.38;;;;;;;;;;10758942;26;20081;-67
2024/04/08 20:21:24;;;;;;;13.55;5.18;;;;;;;;;;10745265;26;20005;-67
2024/04/08 20:26:18;;;;;;;8.85;5.68;;;;;;;;;;10748007;26;20036;-67
2024/04/08 20:31:13;;;;;;;10.45;6.25;;;;;;;;;;10754967;26;20035;-66
2024/04/08 20:36:09;;;;;;;7.97;5.82;;;;;;;;;;10739522;26;20005;-66
2024/04/08 20:41:05;;;;;;;8.02;5.72;;;;;;;;;;10722755;26;20028;-69
2024/04/08 20:45:59;;;;;;;16.30;6.07;;;;;;;;;;10747919;26;20445;-68
2024/04/08 20:50:54;;;;;;;9.63;5.60;;;;;;;;;;10756575;26;20078;-67
2024/04/08 20:55:57;;;;;;;15.48;7.70;;;;;;;;;;10757461;26;20044;-67
2024/04/08 21:00:52;;;;;;;11.68;6.45;;;;;;;;;;10747943;26;20656;-67
2024/04/08 21:05:46;;;;;;;12.02;7.75;;;;;;;;;;10764310;26;20347;-68
2024/04/08 21:10:41;;;;;;;12.27;7.50;;;;;;;;;;10752897;26;20521;-69
2024/04/08 21:15:34;;;;;;;15.43;8.23;;;;;;;;;;10771157;26;20459;-68
2024/04/08 21:20:29;;;;;;;14.68;8.20;;;;;;;;;;10752703;26;20448;-68
2024/04/08 21:25:23;;;;;;;12.15;7.82;;;;;;;;;;10760117;26;20404;-68
2024/04/08 21:30:17;;;;;;;13.68;7.95;;;;;;;;;;10756053;26;20012;-66
2024/04/08 21:35:12;;;;;;;12.00;8.27;;;;;;;;;;10756155;26;20004;-66
2024/04/08 21:40:09;;;;;;;9.10;7.30;;;;;;;;;;10759074;26;20001;-68
2024/04/08 21:45:03;;;;;;;10.88;7.88;;;;;;;;;;10751448;26;20014;-67
2024/04/08 21:49:58;;;;;;;11.52;8.07;;;;;;;;;;10757462;26;20000;-68
2024/04/08 21:54:53;;;;;;;8.70;7.80;;;;;;;;;;10752752;26;20078;-68
2024/04/08 21:59:47;;;;;;;8.93;7.85;;;;;;;;;;10758960;26;20245;-66
2024/04/08 22:04:41;;;;;;;9.70;6.93;;;;;;;;;;10757382;26;20361;-67
2024/04/08 22:09:36;;;;;;;13.10;7.20;;;;;;;;;;10760000;26;20023;-67
2024/04/08 22:14:30;;;;;;;7.85;7.03;;;;;;;;;;10759245;26;20375;-67
2024/04/08 22:19:25;;;;;;;12.90;8.65;;;;;;;;;;10758534;26;20000;-68
2024/04/08 22:24:19;;;;;;;12.32;7.25;;;;;;;;;;10755069;26;20497;-67
2024/04/08 22:29:14;;;;;;;11.30;8.70;;;;;;;;;;10753412;26;20005;-67
2024/04/08 22:34:07;;;;;;;10.48;8.63;;;;;;;;;;10757846;26;20040;-67
2024/04/08 22:39:02;;;;;;;16.75;9.18;;;;;;;;;;10763419;26;20004;-67
2024/04/08 22:43:57;;;;;;;11.75;8.77;;;;;;;;;;10740683;26;20033;-67
2024/04/08 22:48:53;;;;;;;13.02;9.27;;;;;;;;;;10761012;26;20004;-67
2024/04/08 22:53:47;;;;;;;11.88;9.50;;;;;;;;;;10763505;26;20193;-67
2024/04/08 22:58:41;;;;;;;13.45;9.30;;;;;;;;;;10760256;26;20049;-67
2024/04/08 23:03:35;;;;;;;14.73;9.73;;;;;;;;;;10760652;26;20005;-67
2024/04/08 23:08:30;;;;;;;10.98;9.63;;;;;;;;;;10762513;26;20019;-67
2024/04/08 23:13:24;;;;;;;11.75;10.52;;;;;;;;;;10773394;26;20413;-66
2024/04/08 23:18:18;;;;;;;14.52;11.48;;;;;;;;;;10746984;26;20049;-67
2024/04/08 23:23:14;;;;;;;15.45;12.93;;;;;;;;;;10738514;26;20086;-67
2024/04/08 23:28:08;;;;;;;13.63;12.38;;;;;;;;;;10747557;26;20360;-67
2024/04/08 23:33:03;;;;;;;15.52;12.35;;;;;;;;;;10746947;26;20041;-65
2024/04/08 23:37:57;;;;;;;12.68;9.88;;;;;;;;;;10761778;26;20008;-68
2024/04/08 23:42:50;;;;;;;13.93;10.60;;;;;;;;;;10756825;26;20016;-67
2024/04/08 23:47:45;;;;;;;14.07;11.40;;;;;;;;;;10757761;26;20005;-68
2024/04/08 23:52:39;;;;;;;15.73;12.32;;;;;;;;;;10755808;26;20004;-66
2024/04/08 23:57:33;;;;;;;13.77;12.38;;;;;;;;;;10756277;26;20448;-67
